createdAt,value
2018-07-12T00:00:59.036Z,5.57
2018-07-12T00:03:27.397Z,5.33
2018-07-12T00:05:55.799Z,5.90
2018-07-12T00:08:24.181Z,5.30
2018-07-12T00:10:52.563Z,4.90
2018-07-12T00:13:20.922Z,5.00
2018-07-12T00:15:49.336Z,5.03
2018-07-12T00:18:17.669Z,4.67
2018-07-12T00:20:46.524Z,4.97
2018-07-12T00:23:15.317Z,5.33
2018-07-12T00:25:43.649Z,4.30
2018-07-12T00:28:12.035Z,4.33
2018-07-12T00:30:40.391Z,4.90
2018-07-12T00:33:08.751Z,5.60
2018-07-12T00:35:37.136Z,5.10
2018-07-12T00:38:05.573Z,5.73
2018-07-12T00:40:34.003Z,5.50
2018-07-12T00:43:02.340Z,5.50
2018-07-12T00:45:30.708Z,7.60
2018-07-12T00:47:59.056Z,6.47
2018-07-12T00:50:27.650Z,7.90
2018-07-12T00:52:56.175Z,7.07
2018-07-12T00:55:24.523Z,7.27
2018-07-12T00:57:52.927Z,8.47
2018-07-12T01:00:21.372Z,8.53
2018-07-12T01:02:49.712Z,8.40
2018-07-12T01:05:18.065Z,8.03
2018-07-12T01:07:47.391Z,8.13
2018-07-12T01:10:15.745Z,7.43
2018-07-12T01:12:44.189Z,7.63
2018-07-12T01:15:12.551Z,7.47
2018-07-12T01:17:40.982Z,7.50
2018-07-12T01:20:09.297Z,7.40
2018-07-12T01:22:37.695Z,7.87
2018-07-12T01:25:06.053Z,8.20
2018-07-12T01:27:34.398Z,7.87
2018-07-12T01:30:02.768Z,7.83
2018-07-12T01:32:31.136Z,7.77
2018-07-12T01:34:59.506Z,10.30
2018-07-12T01:37:27.884Z,7.83
2018-07-12T01:39:56.260Z,6.53
2018-07-12T01:42:24.666Z,6.20
2018-07-12T01:44:53.406Z,7.57
2018-07-12T01:47:21.739Z,6.23
2018-07-12T01:49:50.106Z,6.53
2018-07-12T01:52:18.454Z,10.53
2018-07-12T01:54:46.843Z,7.00
2018-07-12T01:57:15.208Z,7.87
2018-07-12T01:59:43.565Z,8.43
2018-07-12T02:02:11.939Z,9.17
2018-07-12T02:04:40.328Z,8.07
2018-07-12T02:07:08.680Z,8.03
2018-07-12T02:09:37.025Z,7.47
2018-07-12T02:12:05.366Z,8.97
2018-07-12T02:14:33.766Z,8.40
2018-07-12T02:17:02.160Z,8.63
2018-07-12T02:19:30.495Z,8.23
2018-07-12T02:21:58.863Z,7.30
2018-07-12T02:24:27.264Z,8.17
2018-07-12T02:26:55.623Z,7.40
2018-07-12T02:29:24.199Z,7.47
2018-07-12T02:31:52.551Z,8.30
2018-07-12T02:34:20.909Z,7.83
2018-07-12T02:36:49.250Z,7.67
2018-07-12T02:39:17.602Z,7.60
2018-07-12T02:41:45.932Z,8.83
2018-07-12T02:44:14.295Z,7.67
2018-07-12T02:46:42.662Z,6.93
2018-07-12T02:49:11.036Z,7.10
2018-07-12T02:51:39.394Z,7.50
2018-07-12T02:54:07.816Z,7.93
2018-07-12T02:56:36.194Z,8.83
2018-07-12T02:59:04.572Z,7.73
2018-07-12T03:01:32.926Z,7.33
2018-07-12T03:04:01.306Z,7.33
2018-07-12T03:06:29.685Z,7.77
2018-07-12T03:08:58.047Z,8.90
2018-07-12T03:11:26.428Z,8.00
2018-07-12T03:13:54.808Z,7.30
2018-07-12T03:16:23.170Z,7.53
2018-07-12T03:18:51.519Z,6.73
2018-07-12T03:21:20.106Z,7.13
2018-07-12T03:23:48.678Z,7.20
2018-07-12T03:26:18.206Z,6.20
2018-07-12T03:28:47.087Z,7.37
2018-07-12T03:31:15.362Z,6.83
2018-07-12T03:33:43.760Z,6.63
2018-07-12T03:36:12.208Z,5.90
2018-07-12T03:38:40.556Z,6.83
2018-07-12T03:41:08.907Z,6.90
2018-07-12T03:43:37.902Z,6.80
2018-07-12T03:46:06.273Z,6.47
2018-07-12T03:48:34.630Z,6.43
2018-07-12T03:51:02.994Z,6.57
2018-07-12T03:53:31.636Z,6.30
2018-07-12T03:55:59.968Z,6.70
2018-07-12T03:58:28.353Z,6.87
2018-07-12T04:00:56.714Z,6.53
2018-07-12T04:03:26.215Z,6.33
2018-07-12T04:05:54.635Z,7.73
2018-07-12T04:08:22.987Z,6.27
2018-07-12T04:10:51.359Z,5.93
2018-07-12T04:13:20.137Z,6.57
2018-07-12T04:15:48.471Z,6.37
2018-07-12T04:18:16.837Z,6.37
2018-07-12T04:20:45.193Z,5.67
2018-07-12T04:23:13.637Z,5.93
2018-07-12T04:25:41.992Z,6.53
2018-07-12T04:28:10.408Z,5.80
2018-07-12T04:30:38.785Z,5.87
2018-07-12T04:33:07.193Z,6.10
2018-07-12T04:35:35.617Z,5.67
2018-07-12T04:38:03.997Z,5.97
2018-07-12T04:40:32.349Z,6.37
2018-07-12T04:43:00.769Z,5.03
2018-07-12T04:45:29.162Z,7.30
2018-07-12T04:47:57.547Z,6.73
2018-07-12T04:50:26.003Z,7.10
2018-07-12T04:52:54.367Z,15.20
2018-07-12T04:55:22.748Z,14.40
2018-07-12T04:57:51.203Z,14.07
2018-07-12T05:00:19.572Z,13.60
2018-07-12T05:02:47.953Z,12.30
2018-07-12T05:05:16.304Z,13.30
2018-07-12T05:07:44.699Z,12.00
2018-07-12T05:10:13.092Z,12.63
2018-07-12T05:12:41.451Z,12.70
2018-07-12T05:15:09.814Z,12.07
2018-07-12T05:17:38.175Z,13.47
2018-07-12T05:20:06.589Z,13.23
2018-07-12T05:22:34.963Z,13.00
2018-07-12T05:25:03.535Z,15.57
2018-07-12T05:27:31.988Z,14.03
2018-07-12T05:30:00.483Z,14.90
2018-07-12T05:32:28.858Z,12.67
2018-07-12T05:34:57.207Z,13.97
2018-07-12T05:37:27.328Z,13.63
2018-07-12T05:39:57.438Z,16.97
2018-07-12T05:42:27.860Z,16.60
2018-07-12T05:44:57.977Z,14.70
2018-07-12T05:47:28.030Z,15.63
2018-07-12T05:50:06.440Z,15.03
2018-07-12T05:52:36.483Z,14.83
2018-07-12T05:55:06.538Z,12.97
2018-07-12T05:57:36.676Z,13.93
2018-07-12T06:00:06.772Z,13.10
2018-07-12T06:02:36.880Z,11.70
2018-07-12T06:05:07.084Z,12.93
2018-07-12T06:07:37.311Z,12.87
2018-07-12T06:10:07.404Z,11.30
2018-07-12T06:12:37.506Z,11.77
2018-07-12T06:15:07.599Z,13.77
2018-07-12T06:17:37.782Z,12.47
2018-07-12T06:20:10.188Z,14.47
2018-07-12T06:22:40.336Z,13.57
2018-07-12T06:25:10.536Z,14.10
2018-07-12T06:27:41.203Z,15.30
2018-07-12T06:30:11.365Z,14.40
2018-07-12T06:32:41.490Z,15.60
2018-07-12T06:35:11.568Z,15.27
2018-07-12T06:37:41.570Z,12.30
2018-07-12T06:40:11.813Z,15.93
2018-07-12T06:42:41.997Z,18.97
2018-07-12T06:45:12.059Z,16.80
2018-07-12T06:47:42.134Z,12.20
2018-07-12T06:50:12.147Z,12.43
2018-07-12T06:52:42.220Z,11.63
2018-07-12T06:55:12.352Z,10.03
2018-07-12T06:57:42.415Z,10.33
2018-07-12T07:00:12.724Z,11.20
2018-07-12T07:02:42.805Z,9.33
2018-07-12T07:05:13.047Z,7.93
2018-07-12T07:07:43.155Z,9.73
2018-07-12T07:10:13.381Z,12.80
2018-07-12T07:12:43.544Z,11.50
2018-07-12T07:15:13.868Z,11.17
2018-07-12T07:17:44.152Z,10.80
2018-07-12T07:20:14.433Z,10.17
2018-07-12T07:22:44.587Z,9.57
2018-07-12T07:25:14.838Z,8.53
2018-07-12T07:27:44.903Z,10.43
2018-07-12T07:30:15.341Z,10.03
2018-07-12T07:32:45.514Z,9.40
2018-07-12T07:35:15.566Z,8.57
2018-07-12T07:37:45.799Z,9.77
2018-07-12T07:40:15.864Z,9.80
2018-07-12T07:42:45.956Z,7.40
2018-07-12T07:45:16.112Z,10.47
2018-07-12T07:47:46.142Z,10.60
2018-07-12T07:50:16.408Z,10.60
2018-07-12T07:52:46.531Z,14.33
2018-07-12T07:55:16.565Z,11.00
2018-07-12T07:57:46.564Z,11.20
2018-07-12T08:00:16.640Z,9.93
2018-07-12T08:02:46.828Z,12.47
2018-07-12T08:05:17.012Z,12.03
2018-07-12T08:07:47.307Z,11.10
2018-07-12T08:10:17.454Z,11.07
2018-07-12T08:12:47.538Z,11.50
2018-07-12T08:15:17.733Z,11.23
2018-07-12T08:17:47.859Z,10.67
2018-07-12T08:20:17.932Z,10.67
2018-07-12T08:22:48.030Z,11.17
2018-07-12T08:25:18.102Z,10.90
2018-07-12T08:28:05.364Z,8.17
2018-07-12T08:30:35.495Z,9.13
2018-07-12T08:33:05.649Z,11.00
2018-07-12T08:35:35.739Z,14.00
2018-07-12T08:38:05.829Z,11.33
2018-07-12T08:40:36.065Z,14.87
2018-07-12T08:43:06.216Z,12.47
2018-07-12T08:45:36.372Z,12.13
2018-07-12T08:48:07.203Z,12.97
2018-07-12T08:50:37.251Z,9.17
2018-07-12T08:53:07.705Z,8.87
2018-07-12T08:55:37.658Z,10.87
2018-07-12T08:58:07.775Z,9.50
2018-07-12T09:00:37.829Z,8.70
2018-07-12T09:03:07.997Z,7.83
2018-07-12T09:05:37.999Z,8.03
2018-07-12T09:08:08.144Z,7.67
2018-07-12T09:10:38.240Z,7.33
2018-07-12T09:13:08.351Z,6.80
2018-07-12T09:15:38.572Z,8.03
2018-07-12T09:18:08.711Z,7.50
2018-07-12T09:20:38.788Z,5.77
2018-07-12T09:23:08.891Z,7.40
2018-07-12T09:25:39.047Z,7.63
2018-07-12T09:28:09.482Z,9.87
2018-07-12T09:30:39.562Z,7.70
2018-07-12T09:33:09.912Z,7.43
2018-07-12T09:35:40.051Z,5.90
2018-07-12T09:39:13.434Z,8.67
2018-07-12T09:41:43.629Z,6.33
2018-07-12T09:44:13.759Z,5.77
2018-07-12T09:46:43.843Z,5.67
2018-07-12T09:49:14.191Z,5.43
2018-07-12T09:51:44.196Z,5.27
2018-07-12T09:54:14.413Z,5.20
2018-07-12T09:57:01.458Z,6.27
2018-07-12T09:59:31.664Z,5.10
2018-07-12T10:02:07.090Z,4.80
2018-07-12T10:04:37.163Z,4.63
2018-07-12T10:07:12.605Z,4.40
2018-07-12T10:09:59.062Z,4.80
2018-07-12T10:12:37.300Z,5.80
2018-07-12T10:15:09.558Z,4.67
2018-07-12T10:17:43.671Z,4.53
2018-07-12T10:20:13.852Z,5.50
2018-07-12T10:22:44.975Z,5.13
2018-07-12T10:25:15.164Z,5.50
2018-07-12T10:27:45.334Z,5.10
2018-07-12T10:30:15.532Z,6.83
2018-07-12T10:32:45.659Z,4.57
2018-07-12T10:35:15.719Z,4.83
2018-07-12T10:37:45.494Z,4.37
2018-07-12T10:40:15.618Z,4.37
2018-07-12T10:42:46.079Z,4.83
2018-07-12T10:45:16.288Z,4.00
2018-07-12T10:47:46.473Z,4.70
2018-07-12T10:50:16.584Z,3.87
2018-07-12T10:52:46.676Z,5.30
2018-07-12T10:55:16.815Z,4.70
2018-07-12T10:57:47.493Z,4.70
2018-07-12T11:00:18.181Z,5.20
2018-07-12T11:02:49.131Z,3.83
2018-07-12T11:05:19.767Z,3.00
2018-07-12T11:07:50.300Z,3.60
2018-07-12T11:10:20.509Z,3.00
2018-07-12T11:13:07.526Z,3.47
2018-07-12T11:15:37.643Z,3.53
2018-07-12T11:18:07.774Z,4.67
2018-07-12T11:20:38.443Z,4.40
2018-07-12T11:23:08.598Z,4.50
2018-07-12T11:25:38.841Z,2.90
2018-07-12T11:28:09.144Z,3.87
2018-07-12T11:30:39.363Z,5.13
2018-07-12T11:33:51.861Z,3.40
2018-07-12T11:36:22.088Z,4.43
2018-07-12T11:38:52.120Z,3.70
2018-07-12T11:41:22.269Z,3.37
2018-07-12T11:43:52.377Z,2.67
2018-07-12T11:46:23.682Z,3.13
2018-07-12T11:48:53.792Z,2.70
2018-07-12T11:51:23.921Z,2.80
2018-07-12T11:53:54.000Z,2.97
2018-07-12T11:56:24.227Z,3.27
2018-07-12T11:58:54.838Z,3.93
2018-07-12T12:01:25.062Z,3.07
2018-07-12T12:03:55.131Z,3.47
2018-07-12T12:06:25.384Z,3.27
2018-07-12T12:08:55.679Z,4.07
2018-07-12T12:11:25.857Z,3.27
2018-07-12T12:13:56.009Z,3.37
2018-07-12T12:16:26.181Z,3.03
2018-07-12T12:18:56.311Z,4.07
2018-07-12T12:21:26.564Z,7.53
2018-07-12T12:23:57.009Z,2.60
2018-07-12T12:26:27.819Z,7.07
2018-07-12T12:28:58.045Z,2.33
2018-07-12T12:31:28.178Z,2.50
2018-07-12T12:33:58.345Z,2.40
2018-07-12T12:36:28.519Z,2.53
2018-07-12T12:38:58.823Z,2.97
2018-07-12T12:41:29.093Z,5.50
2018-07-12T12:43:59.312Z,3.93
2018-07-12T12:46:30.017Z,3.73
2018-07-12T12:49:00.185Z,2.40
2018-07-12T12:51:30.352Z,3.03
2018-07-12T12:54:00.409Z,4.83
2018-07-12T12:56:30.495Z,3.20
2018-07-12T12:59:00.521Z,2.90
2018-07-12T13:01:30.613Z,15.43
2018-07-12T13:04:00.832Z,2.20
2018-07-12T13:06:31.046Z,2.70
2018-07-12T13:09:01.417Z,2.60
2018-07-12T13:11:31.519Z,2.70
2018-07-12T13:14:01.632Z,2.93
2018-07-12T13:16:31.853Z,2.63
2018-07-12T13:19:02.021Z,3.53
2018-07-12T13:21:32.235Z,2.20
2018-07-12T13:24:02.379Z,2.23
2018-07-12T13:26:32.513Z,1.73
2018-07-12T13:29:02.711Z,2.10
2018-07-12T13:31:32.841Z,2.10
2018-07-12T13:34:04.358Z,2.57
2018-07-12T13:36:34.539Z,2.80
2018-07-12T13:39:05.993Z,1.80
2018-07-12T13:41:36.111Z,3.53
2018-07-12T13:44:22.196Z,1.90
2018-07-12T13:46:53.480Z,1.80
2018-07-12T13:49:23.598Z,1.87
2018-07-12T13:51:53.935Z,2.10
2018-07-12T13:54:24.054Z,2.40
2018-07-12T13:56:54.238Z,2.93
2018-07-12T13:59:25.076Z,2.13
2018-07-12T14:01:55.232Z,1.83
2018-07-12T14:04:25.414Z,1.93
2018-07-12T14:06:56.367Z,2.00
2018-07-12T14:09:27.261Z,1.90
2018-07-12T14:11:57.404Z,1.47
2018-07-12T14:14:27.506Z,1.50
2018-07-12T14:16:57.713Z,1.90
2018-07-12T14:19:27.932Z,3.77
2018-07-12T14:21:58.040Z,1.50
2018-07-12T14:24:28.249Z,1.87
2018-07-12T14:26:58.488Z,3.80
2018-07-12T14:29:28.648Z,2.20
2018-07-12T14:31:58.791Z,1.50
2018-07-12T14:34:28.991Z,2.20
2018-07-12T14:36:59.783Z,1.77
2018-07-12T14:39:29.972Z,1.77
2018-07-12T14:42:00.208Z,2.03
2018-07-12T14:44:30.358Z,2.20
2018-07-12T14:47:00.626Z,2.20
2018-07-12T14:49:30.780Z,2.07
2018-07-12T14:52:00.955Z,1.60
2018-07-12T14:54:31.118Z,1.80
2018-07-12T14:57:01.346Z,2.00
2018-07-12T14:59:31.444Z,1.40
2018-07-12T15:02:03.002Z,1.77
2018-07-12T15:04:33.111Z,1.57
2018-07-12T15:07:03.249Z,1.17
2018-07-12T15:09:33.338Z,1.80
2018-07-12T15:12:03.747Z,2.00
2018-07-12T15:14:33.869Z,1.53
2018-07-12T15:17:04.196Z,1.50
2018-07-12T15:19:34.329Z,1.40
2018-07-12T15:22:04.466Z,1.50
2018-07-12T15:24:34.841Z,1.20
2018-07-12T15:27:05.124Z,1.30
2018-07-12T15:29:35.385Z,1.40
2018-07-12T15:32:05.950Z,1.00
2018-07-12T15:34:36.083Z,1.40
2018-07-12T15:37:07.255Z,1.30
2018-07-12T15:39:37.377Z,1.70
2018-07-12T15:42:07.549Z,1.60
2018-07-12T15:44:37.790Z,1.37
2018-07-12T15:47:08.057Z,1.40
2018-07-12T15:49:38.646Z,1.20
2018-07-12T15:52:08.768Z,1.30
2018-07-12T15:54:38.899Z,1.20
2018-07-12T15:57:09.041Z,3.07
2018-07-12T15:59:39.253Z,1.37
2018-07-12T16:02:09.692Z,1.40
2018-07-12T16:04:39.816Z,1.47
2018-07-12T16:07:10.027Z,1.47
2018-07-12T16:09:40.955Z,1.67
2018-07-12T16:12:11.131Z,1.40
2018-07-12T16:14:41.327Z,1.37
2018-07-12T16:17:11.665Z,3.43
2018-07-12T16:19:41.786Z,1.43
2018-07-12T16:22:11.997Z,2.50
2018-07-12T16:24:42.087Z,2.60
2018-07-12T16:27:12.200Z,1.50
2018-07-12T16:29:43.219Z,1.87
2018-07-12T16:32:13.378Z,1.67
2018-07-12T16:37:15.547Z,1.60
2018-07-12T16:39:45.679Z,1.50
2018-07-12T16:42:15.816Z,1.67
2018-07-12T16:44:45.953Z,1.40
2018-07-12T16:47:16.189Z,1.70
2018-07-12T16:49:46.463Z,1.93
2018-07-12T16:52:16.536Z,2.23
2018-07-12T16:54:46.639Z,2.27
2018-07-12T16:57:16.719Z,1.87
2018-07-12T16:59:46.759Z,1.73
2018-07-12T17:02:16.959Z,1.53
2018-07-12T17:04:47.144Z,2.00
2018-07-12T17:07:17.549Z,1.83
2018-07-12T17:09:47.570Z,1.67
2018-07-12T17:12:17.802Z,2.00
2018-07-12T17:14:47.847Z,1.43
2018-07-12T17:17:17.988Z,1.40
2018-07-12T17:19:48.613Z,1.27
2018-07-12T17:22:19.111Z,1.50
2018-07-12T17:24:49.275Z,1.30
2018-07-12T17:27:19.432Z,1.47
2018-07-12T17:29:49.503Z,1.30
2018-07-12T17:32:20.119Z,1.60
2018-07-12T17:34:50.002Z,1.90
2018-07-12T17:37:20.089Z,2.03
2018-07-12T17:39:50.923Z,3.43
2018-07-12T17:42:21.129Z,1.90
2018-07-12T17:44:51.272Z,1.60
2018-07-12T17:47:21.456Z,2.07
2018-07-12T17:49:51.606Z,2.10
2018-07-12T17:52:21.818Z,2.00
2018-07-12T17:54:51.942Z,2.20
2018-07-12T17:57:22.686Z,2.00
2018-07-12T17:59:53.434Z,1.77
2018-07-12T18:02:24.584Z,1.60
2018-07-12T18:04:56.159Z,2.00
2018-07-12T18:07:27.155Z,1.60
2018-07-12T18:09:57.342Z,1.47
2018-07-12T18:12:28.123Z,1.20
2018-07-12T18:14:58.223Z,1.30
2018-07-12T18:17:28.411Z,2.83
2018-07-12T18:19:58.534Z,1.77
2018-07-12T18:22:28.746Z,1.57
2018-07-12T18:24:58.914Z,1.10
2018-07-12T18:27:29.044Z,1.43
2018-07-12T18:29:59.171Z,2.23
2018-07-12T18:32:29.372Z,1.43
2018-07-12T18:34:59.512Z,2.13
2018-07-12T18:37:29.692Z,2.10
2018-07-12T18:40:00.761Z,2.10
2018-07-12T18:42:31.174Z,1.50
2018-07-12T18:45:01.374Z,2.07
2018-07-12T18:47:31.502Z,1.63
2018-07-12T18:50:01.574Z,2.57
2018-07-12T18:52:31.782Z,3.80
2018-07-12T18:55:02.651Z,2.10
2018-07-12T18:57:32.776Z,2.10
2018-07-12T19:00:02.887Z,2.13
2018-07-12T19:02:33.137Z,2.30
2018-07-12T19:05:03.232Z,2.07
2018-07-12T19:07:33.400Z,2.17
2018-07-12T19:10:03.785Z,2.37
2018-07-12T19:12:34.012Z,3.40
2018-07-12T19:15:04.242Z,1.87
2018-07-12T19:17:34.416Z,1.97
2018-07-12T19:20:05.530Z,2.53
2018-07-12T19:22:35.717Z,1.47
2018-07-12T19:25:05.800Z,1.90
2018-07-12T19:27:36.116Z,2.10
2018-07-12T19:30:06.251Z,1.70
2018-07-12T19:32:36.429Z,2.03
2018-07-12T19:35:07.210Z,1.90
2018-07-12T19:37:37.530Z,2.00
2018-07-12T19:40:08.749Z,1.87
2018-07-12T19:42:38.786Z,1.63
2018-07-12T19:45:08.957Z,1.70
2018-07-12T19:47:39.099Z,2.13
2018-07-12T19:50:09.308Z,2.47
2018-07-12T19:52:40.591Z,2.30
2018-07-12T19:55:11.372Z,2.20
2018-07-12T19:57:41.608Z,2.07
2018-07-12T20:00:11.839Z,2.13
2018-07-12T20:02:42.789Z,1.80
2018-07-12T20:05:13.423Z,1.97
2018-07-12T20:07:44.249Z,1.90
2018-07-12T20:10:14.927Z,3.03
2018-07-12T20:12:45.071Z,1.70
2018-07-12T20:15:15.907Z,2.03
2018-07-12T20:17:47.637Z,2.40
2018-07-12T20:20:18.408Z,2.40
2018-07-12T20:22:48.625Z,2.13
2018-07-12T20:25:18.932Z,2.60
2018-07-12T20:27:49.083Z,2.57
2018-07-12T20:30:19.911Z,2.57
2018-07-12T20:32:50.104Z,2.40
2018-07-12T20:35:20.205Z,2.37
2018-07-12T20:37:50.382Z,2.10
2018-07-12T20:40:21.166Z,2.13
2018-07-12T20:42:53.640Z,1.77
2018-07-12T20:45:24.623Z,1.73
2018-07-12T20:47:55.009Z,2.00
2018-07-12T20:50:25.997Z,1.70
2018-07-12T20:52:56.156Z,2.00
2018-07-12T20:55:26.265Z,2.00
2018-07-12T20:57:56.442Z,2.10
2018-07-12T21:00:26.580Z,2.00
2018-07-12T21:02:56.845Z,1.60
2018-07-12T21:05:27.180Z,1.30
2018-07-12T21:07:57.831Z,1.60
2018-07-12T21:10:27.986Z,1.50
2018-07-12T21:12:58.129Z,1.10
2018-07-12T21:15:28.393Z,1.50
2018-07-12T21:17:58.576Z,2.10
2018-07-12T21:20:28.985Z,2.30
2018-07-12T21:23:00.138Z,1.97
2018-07-12T21:25:30.311Z,2.20
2018-07-12T21:28:00.429Z,2.37
2018-07-12T21:30:30.518Z,1.90
2018-07-12T21:33:00.814Z,2.57
2018-07-12T21:35:30.925Z,2.30
2018-07-12T21:38:01.124Z,3.00
2018-07-12T21:40:31.301Z,2.30
2018-07-12T21:43:01.567Z,2.70
2018-07-12T21:45:31.708Z,2.63
2018-07-12T21:48:01.861Z,2.40
2018-07-12T21:50:32.183Z,3.03
2018-07-12T21:53:02.636Z,2.40
2018-07-12T21:55:32.833Z,2.93
2018-07-12T21:58:03.006Z,2.40
2018-07-12T22:00:33.855Z,3.07
2018-07-12T22:03:04.851Z,2.40
2018-07-12T22:05:35.567Z,2.50
2018-07-12T22:08:17.434Z,2.30
2018-07-12T22:10:48.627Z,2.47
2018-07-12T22:13:19.533Z,2.63
2018-07-12T22:15:49.688Z,2.37
2018-07-12T22:18:19.822Z,2.30
2018-07-12T22:20:49.956Z,2.30
2018-07-12T22:23:20.092Z,2.30
2018-07-12T22:25:50.327Z,2.50
2018-07-12T22:28:20.427Z,2.43
2018-07-12T22:30:50.624Z,2.47
2018-07-12T22:33:21.412Z,2.77
2018-07-12T22:35:51.632Z,3.33
2018-07-12T22:38:21.776Z,3.33
2018-07-12T22:40:51.890Z,3.27
2018-07-12T22:43:22.642Z,3.67
2018-07-12T22:45:52.806Z,3.83
2018-07-12T22:48:23.031Z,3.17
2018-07-12T22:50:53.072Z,2.80
2018-07-12T22:53:24.383Z,2.63
2018-07-12T22:55:54.567Z,3.30
2018-07-12T22:58:24.785Z,3.03
2018-07-12T23:00:54.643Z,3.10
2018-07-12T23:03:25.217Z,2.83
2018-07-12T23:05:55.335Z,3.17
2018-07-12T23:08:25.547Z,3.10
2018-07-12T23:10:55.784Z,2.90
2018-07-12T23:13:26.895Z,3.37
2018-07-12T23:15:57.636Z,4.20
2018-07-12T23:18:27.955Z,3.80
2018-07-12T23:20:58.859Z,2.90
2018-07-12T23:23:29.465Z,2.83
2018-07-12T23:25:59.553Z,2.90
2018-07-12T23:28:30.149Z,3.00
2018-07-12T23:31:00.248Z,3.20
2018-07-12T23:33:30.681Z,3.10
2018-07-12T23:36:00.798Z,3.00
2018-07-12T23:38:30.851Z,3.00
2018-07-12T23:41:00.883Z,2.50
2018-07-12T23:43:30.972Z,2.50
2018-07-12T23:46:01.891Z,2.50
2018-07-12T23:48:32.084Z,2.70
2018-07-12T23:51:02.257Z,2.30
2018-07-12T23:53:33.041Z,3.50
2018-07-12T23:56:03.135Z,3.03
2018-07-12T23:58:33.263Z,5.07
